Fort Hancock, Texas
Current Conditions -  °F | °C
As of 4:40 PM on Monday 20 Oct 2014 (Local Time) from MMCS Reporting Station
Scattered Clouds Scattered Clouds  
Wind Chill: 72°   Ceiling: Unl
Heat Index: 72°   Visibility: 10mi
Dew Point: 55°   Wind: 9mph
Humidity: 57%   Direction: 130°SE
Pressure: 29.96"   Gusts: NA
Location:  31.3°N, 105.85°W
Report Text: MMCS 202240Z 13008KT 10SM SCT040TCU SCT250 22/13 A2996 RMK 8/203 CBS VC ISOL AC
Loading
Personal Weather Stations






























Interactive Weather Map
Tropical Storm Tracking
New forecast layout! Learn more

10-Day Weather Forecast

Advertisements
Track Severe Weather on mobile